Time;durP1;ratioP1;P1;durP2;ratioP2;P2;SDS_P1;SDS_P2;PMS_P1;PMS_P2;Temp;Humidity;BMP_temperature;BMP_pressure;BME280_temperature;BME280_humidity;BME280_pressure;Samples;Min_cycle;Max_cycle;Signal;HPM_P1;HPM_P2
2021/05/30 00:01:57;;;;;;;3.63;3.00;;;13.80;98.60;;;;;;6228052;28;20957;-62
2021/05/30 00:05:00;;;;;;;4.00;3.60;;;13.80;98.80;;;;;;6228577;28;20479;-62
2021/05/30 00:08:03;;;;;;;3.23;3.00;;;13.80;99.10;;;;;;6228313;28;20486;-62
2021/05/30 00:11:06;;;;;;;3.37;3.07;;;13.80;98.70;;;;;;6228077;28;20966;-62
2021/05/30 00:14:09;;;;;;;3.40;3.20;;;13.80;98.50;;;;;;6228208;28;20786;-62
2021/05/30 00:17:12;;;;;;;3.37;3.07;;;13.80;98.50;;;;;;6228224;28;20482;-62
2021/05/30 00:20:16;;;;;;;4.10;3.37;;;13.70;98.50;;;;;;6227754;28;20475;-61
2021/05/30 00:23:19;;;;;;;3.70;3.40;;;13.60;98.40;;;;;;6227956;28;20474;-61
2021/05/30 00:26:22;;;;;;;3.60;3.30;;;13.50;98.80;;;;;;6227827;28;20491;-62
2021/05/30 00:29:24;;;;;;;7.67;3.87;;;13.40;99.00;;;;;;6227553;28;20825;-62
2021/05/30 00:32:27;;;;;;;3.20;3.00;;;13.40;99.30;;;;;;6227611;28;20488;-61
2021/05/30 00:35:31;;;;;;;3.00;2.60;;;13.40;99.30;;;;;;6226937;28;20471;-61
2021/05/30 00:38:34;;;;;;;3.20;3.00;;;13.30;98.40;;;;;;6227737;28;20478;-63
2021/05/30 00:41:36;;;;;;;3.70;2.97;;;13.30;98.40;;;;;;6227548;28;20471;-62
2021/05/30 00:44:39;;;;;;;3.20;2.90;;;13.20;98.30;;;;;;6227597;28;20487;-61
2021/05/30 00:47:42;;;;;;;5.17;3.30;;;12.90;97.80;;;;;;6227617;28;20479;-61
2021/05/30 00:50:47;;;;;;;3.93;3.37;;;12.60;97.50;;;;;;6227052;28;20472;-62
2021/05/30 00:53:49;;;;;;;5.00;3.57;;;12.50;97.90;;;;;;6227071;28;20827;-62
2021/05/30 00:56:52;;;;;;;4.17;3.73;;;12.40;98.00;;;;;;6226824;28;20479;-62
2021/05/30 00:59:55;;;;;;;3.13;2.93;;;12.20;98.10;;;;;;6227330;28;20479;-61
2021/05/30 01:02:58;;;;;;;3.70;3.40;;;12.20;98.10;;;;;;6226599;28;20936;-62
2021/05/30 01:06:01;;;;;;;3.37;3.07;;;12.10;98.50;;;;;;6226854;28;20486;-62
2021/05/30 01:09:04;;;;;;;3.60;3.30;;;12.00;98.50;;;;;;6226588;28;20483;-62
2021/05/30 01:12:09;;;;;;;4.13;3.70;;;12.10;98.40;;;;;;6226869;28;20482;-61
2021/05/30 01:15:13;;;;;;;3.87;3.40;;;12.20;98.20;;;;;;6226365;28;20488;-61
2021/05/30 01:18:16;;;;;;;4.40;3.80;;;12.30;98.40;;;;;;6226226;28;20831;-61
2021/05/30 01:21:20;;;;;;;3.53;3.33;;;12.20;98.10;;;;;;6224909;28;20475;-62
2021/05/30 01:24:24;;;;;;;3.40;3.10;;;12.20;98.10;;;;;;6226537;28;20476;-62
2021/05/30 01:27:27;;;;;;;3.43;3.00;;;12.30;98.10;;;;;;6226326;28;20472;-62
2021/05/30 01:30:29;;;;;;;2.30;2.20;;;12.30;98.30;;;;;;6226562;28;20479;-62
2021/05/30 01:33:32;;;;;;;2.67;2.47;;;12.40;98.40;;;;;;6226329;28;20471;-63
2021/05/30 01:36:35;;;;;;;3.17;2.67;;;12.40;98.30;;;;;;6225848;28;20475;-62
2021/05/30 01:39:38;;;;;;;3.40;2.80;;;12.40;97.80;;;;;;6226204;28;20467;-62
2021/05/30 01:42:41;;;;;;;2.80;2.43;;;12.40;97.80;;;;;;6226172;28;20479;-62
2021/05/30 01:45:44;;;;;;;2.63;2.43;;;12.40;97.80;;;;;;6225421;28;20846;-62
2021/05/30 01:48:47;;;;;;;3.10;2.80;;;12.40;97.90;;;;;;6225790;28;20997;-62
2021/05/30 01:51:50;;;;;;;2.87;2.67;;;12.40;98.00;;;;;;6226169;28;20523;-62
2021/05/30 01:54:54;;;;;;;3.53;3.23;;;12.40;98.10;;;;;;6225572;28;20490;-62
2021/05/30 01:57:58;;;;;;;2.57;2.37;;;12.30;98.30;;;;;;6225828;28;20476;-62
2021/05/30 02:01:02;;;;;;;3.83;2.43;;;12.20;98.30;;;;;;6225601;28;20490;-62
2021/05/30 02:04:06;;;;;;;3.00;2.70;;;12.20;98.20;;;;;;6225691;28;20476;-62
2021/05/30 02:07:10;;;;;;;3.67;2.90;;;12.20;98.10;;;;;;6225604;28;20476;-63
2021/05/30 02:10:15;;;;;;;6.70;4.50;;;12.10;98.20;;;;;;6225381;28;20471;-62
2021/05/30 02:13:17;;;;;;;4.90;4.40;;;12.10;98.40;;;;;;6225756;28;20981;-62
2021/05/30 02:16:20;;;;;;;7.57;4.73;;;12.00;98.70;;;;;;6225087;28;20491;-62
2021/05/30 02:19:23;;;;;;;3.77;3.47;;;12.00;99.10;;;;;;6225204;28;20577;-62
2021/05/30 02:22:26;;;;;;;5.50;3.40;;;12.00;99.20;;;;;;6224920;28;20796;-62
2021/05/30 02:25:30;;;;;;;3.47;3.17;;;12.00;99.30;;;;;;6225221;28;20456;-61
2021/05/30 02:28:33;;;;;;;3.87;3.27;;;11.90;99.40;;;;;;6225235;28;20456;-61
2021/05/30 02:31:36;;;;;;;3.27;2.80;;;11.90;99.60;;;;;;6225355;28;20440;-61
2021/05/30 02:34:42;;;;;;;3.30;3.00;;;11.80;99.60;;;;;;6224548;28;20806;-61
2021/05/30 02:37:44;;;;;;;2.73;2.53;;;11.80;99.70;;;;;;6225534;28;20436;-62
2021/05/30 02:40:49;;;;;;;3.07;2.43;;;11.80;99.80;;;;;;6224453;28;20910;-61
2021/05/30 02:43:51;;;;;;;2.50;2.30;;;11.70;99.80;;;;;;6224859;28;20805;-61
2021/05/30 02:46:54;;;;;;;3.37;2.87;;;11.70;99.80;;;;;;6224943;28;20518;-62
2021/05/30 02:49:57;;;;;;;2.90;2.70;;;11.70;99.90;;;;;;6225027;28;20470;-59
2021/05/30 02:52:59;;;;;;;2.70;2.50;;;11.60;99.90;;;;;;6225177;28;20829;-62
2021/05/30 02:56:03;;;;;;;3.90;3.40;;;11.60;99.90;;;;;;6225564;28;20606;-61
2021/05/30 02:59:06;;;;;;;2.50;2.40;;;11.60;99.90;;;;;;6229782;28;20790;-61
2021/05/30 03:02:09;;;;;;;3.50;2.93;;;11.50;99.90;;;;;;6229936;28;20467;-61
2021/05/30 03:05:12;;;;;;;2.93;2.70;;;11.50;99.90;;;;;;6220775;28;20835;-61
2021/05/30 03:08:14;;;;;;;3.23;2.93;;;11.40;99.90;;;;;;6229333;28;21025;-61
2021/05/30 03:11:18;;;;;;;2.63;2.43;;;11.40;99.90;;;;;;6229704;28;20976;-61
2021/05/30 03:14:21;;;;;;;3.23;2.93;;;11.40;99.90;;;;;;6229334;28;20479;-62
2021/05/30 03:17:24;;;;;;;2.67;2.47;;;11.30;99.90;;;;;;6229760;28;20471;-59
2021/05/30 03:20:26;;;;;;;2.43;2.30;;;11.30;99.90;;;;;;6229095;28;20479;-59
2021/05/30 03:23:29;;;;;;;2.73;2.53;;;11.20;99.90;;;;;;6229104;28;20483;-59
2021/05/30 03:26:33;;;;;;;4.40;2.77;;;11.10;99.90;;;;;;6229143;28;20861;-59
2021/05/30 03:29:35;;;;;;;4.33;2.50;;;11.20;99.90;;;;;;6229147;28;20472;-59
2021/05/30 03:32:38;;;;;;;3.10;2.90;;;11.10;99.90;;;;;;6229308;28;20830;-59
2021/05/30 03:35:41;;;;;;;3.67;3.00;;;11.10;99.90;;;;;;6228741;28;20973;-59
2021/05/30 03:38:44;;;;;;;3.50;3.00;;;11.00;99.90;;;;;;6229062;28;20482;-58
2021/05/30 03:41:53;;;;;;;3.13;2.83;;;11.00;99.90;;;;;;6228481;28;20609;-59
2021/05/30 03:44:57;;;;;;;3.10;2.90;;;11.00;99.90;;;;;;6228968;28;20476;-59
2021/05/30 03:47:59;;;;;;;3.30;3.00;;;11.10;99.90;;;;;;6228570;28;20482;-59
2021/05/30 03:51:02;;;;;;;3.30;2.63;;;11.10;99.90;;;;;;6228670;28;20818;-59
2021/05/30 03:54:05;;;;;;;3.27;2.77;;;11.10;99.90;;;;;;6228651;28;20472;-58
2021/05/30 03:57:10;;;;;;;2.97;2.73;;;11.20;99.90;;;;;;6228598;28;20822;-59
2021/05/30 04:00:15;;;;;;;2.60;2.17;;;11.30;99.90;;;;;;6228158;28;20476;-59
2021/05/30 04:03:17;;;;;;;3.77;3.47;;;11.20;99.90;;;;;;6228480;28;20472;-59
2021/05/30 04:06:21;;;;;;;3.60;3.30;;;11.30;99.90;;;;;;6228104;28;20490;-59
2021/05/30 04:09:24;;;;;;;4.73;2.90;;;11.50;99.80;;;;;;6227683;28;20984;-58
2021/05/30 04:12:28;;;;;;;4.73;2.53;;;11.60;99.50;;;;;;6228303;28;20482;-59
2021/05/30 04:15:30;;;;;;;3.07;2.60;;;11.80;99.40;;;;;;6227795;28;20483;-58
2021/05/30 04:18:33;;;;;;;2.60;2.30;;;11.90;99.10;;;;;;6227927;28;20475;-59
2021/05/30 04:21:36;;;;;;;2.60;2.40;;;12.00;98.90;;;;;;6227755;28;20479;-59
2021/05/30 04:24:38;;;;;;;3.57;3.00;;;12.10;98.70;;;;;;6227922;28;20482;-59
2021/05/30 04:27:42;;;;;;;3.20;2.90;;;12.10;98.40;;;;;;6227544;28;21000;-59
2021/05/30 04:30:46;;;;;;;3.30;2.40;;;12.30;98.40;;;;;;6227741;28;20471;-61
2021/05/30 04:33:48;;;;;;;2.70;2.50;;;12.40;98.30;;;;;;6227257;28;20476;-59
2021/05/30 04:36:51;;;;;;;2.93;2.57;;;12.50;98.20;;;;;;6227683;28;20467;-60
2021/05/30 04:39:54;;;;;;;4.70;3.00;;;12.70;98.10;;;;;;6227434;28;20476;-60
2021/05/30 04:42:57;;;;;;;2.67;2.47;;;12.80;97.90;;;;;;6227196;28;20487;-62
2021/05/30 04:46:01;;;;;;;2.33;2.20;;;13.00;97.60;;;;;;6227660;28;20472;-61
2021/05/30 04:49:05;;;;;;;3.20;2.90;;;13.20;97.40;;;;;;6226869;28;20566;-62
2021/05/30 04:52:09;;;;;;;4.43;4.13;;;13.30;97.30;;;;;;6227024;28;20471;-60
2021/05/30 04:55:12;;;;;;;3.40;3.10;;;13.40;97.00;;;;;;6226858;28;20475;-60
2021/05/30 04:58:16;;;;;;;2.73;2.43;;;13.50;96.70;;;;;;6226979;28;20973;-57
2021/05/30 05:01:19;;;;;;;2.63;2.43;;;13.40;95.70;;;;;;6226659;28;20480;-58
2021/05/30 05:04:22;;;;;;;2.80;2.60;;;13.40;95.50;;;;;;6227004;28;20486;-58
2021/05/30 05:07:25;;;;;;;2.60;2.40;;;13.40;95.60;;;;;;6226646;28;20491;-58
2021/05/30 05:10:27;;;;;;;3.90;2.47;;;13.40;95.50;;;;;;6226662;28;20479;-59
2021/05/30 05:13:31;;;;;;;2.57;2.37;;;13.50;95.00;;;;;;6225972;28;20814;-61
2021/05/30 05:16:34;;;;;;;2.50;2.40;;;13.60;94.60;;;;;;6227053;28;20452;-58
2021/05/30 05:19:37;;;;;;;4.03;2.53;;;13.70;94.70;;;;;;6225421;28;20440;-59
2021/05/30 05:22:39;;;;;;;3.27;3.07;;;13.90;95.30;;;;;;6226580;28;20486;-60
2021/05/30 05:25:42;;;;;;;1.97;1.87;;;14.20;94.90;;;;;;6226450;28;20460;-59
2021/05/30 05:28:46;;;;;;;3.10;2.77;;;14.40;94.20;;;;;;6226210;28;20918;-59
2021/05/30 05:31:48;;;;;;;2.40;2.20;;;14.70;93.80;;;;;;6226182;28;20902;-60
2021/05/30 05:34:51;;;;;;;1.87;1.67;;;14.80;93.30;;;;;;6226114;28;20531;-60
2021/05/30 05:37:55;;;;;;;2.03;1.93;;;15.00;91.60;;;;;;6226167;28;20460;-59
2021/05/30 05:40:58;;;;;;;2.97;2.67;;;15.10;91.20;;;;;;6225954;28;20467;-59
2021/05/30 05:44:01;;;;;;;1.93;1.70;;;15.20;91.00;;;;;;6226379;28;20460;-60
2021/05/30 05:47:05;;;;;;;1.50;1.40;;;15.30;89.90;;;;;;6225475;28;20484;-60
2021/05/30 05:50:09;;;;;;;2.30;2.10;;;15.50;89.00;;;;;;6225975;28;20464;-60
2021/05/30 05:53:12;;;;;;;2.53;1.87;;;15.60;88.20;;;;;;6225868;28;20479;-60
2021/05/30 05:56:15;;;;;;;2.70;1.70;;;15.70;86.70;;;;;;6225965;28;20471;-59
2021/05/30 05:59:18;;;;;;;1.50;1.40;;;15.70;86.70;;;;;;6225613;28;20479;-60
2021/05/30 06:02:21;;;;;;;2.07;1.97;;;15.90;84.90;;;;;;6225733;28;20468;-60
2021/05/30 06:05:25;;;;;;;2.93;1.93;;;16.30;82.30;;;;;;6225416;28;20491;-59
2021/05/30 06:08:28;;;;;;;1.50;1.37;;;16.70;80.50;;;;;;6225558;28;20487;-60
2021/05/30 06:11:31;;;;;;;1.73;1.63;;;17.10;78.60;;;;;;6225997;28;20479;-60
2021/05/30 06:14:34;;;;;;;1.30;1.20;;;17.50;78.20;;;;;;6225314;28;20495;-61
2021/05/30 06:17:37;;;;;;;1.87;1.77;;;17.70;76.30;;;;;;6225343;28;20502;-61
2021/05/30 06:20:41;;;;;;;1.90;1.80;;;18.50;73.00;;;;;;6224505;28;20475;-61
2021/05/30 06:23:44;;;;;;;2.80;1.90;;;18.90;69.80;;;;;;6225424;28;20476;-63
2021/05/30 06:26:47;;;;;;;2.17;1.90;;;19.20;68.50;;;;;;6225253;28;20472;-64
2021/05/30 06:29:50;;;;;;;2.13;1.93;;;19.60;66.30;;;;;;6225109;28;20229;-63
2021/05/30 06:32:53;;;;;;;2.00;1.90;;;20.50;63.10;;;;;;6224648;28;20235;-63
2021/05/30 06:35:56;;;;;;;1.83;1.73;;;20.70;59.40;;;;;;6225006;28;20248;-63
2021/05/30 06:38:59;;;;;;;2.00;1.90;;;20.60;59.10;;;;;;6225241;28;20228;-63
2021/05/30 06:42:01;;;;;;;2.70;1.80;;;21.20;58.30;;;;;;6224990;28;20564;-64
2021/05/30 06:45:07;;;;;;;1.70;1.60;;;21.80;56.80;;;;;;6225505;28;20225;-64
2021/05/30 06:48:09;;;;;;;2.23;1.67;;;22.00;54.80;;;;;;6224959;28;20239;-64
2021/05/30 06:51:13;;;;;;;1.87;1.77;;;21.50;54.00;;;;;;6224489;28;20247;-64
2021/05/30 06:54:17;;;;;;;1.80;1.70;;;22.00;54.90;;;;;;6224630;28;20261;-64
2021/05/30 06:57:19;;;;;;;1.67;1.57;;;22.90;52.70;;;;;;6224755;28;20575;-64
2021/05/30 07:00:23;;;;;;;2.27;2.07;;;23.40;48.90;;;;;;6224832;28;20224;-64
2021/05/30 07:03:26;;;;;;;2.03;1.80;;;24.00;49.10;;;;;;6224337;28;20236;-64
2021/05/30 07:06:28;;;;;;;3.87;2.00;;;24.80;48.70;;;;;;6224182;28;20232;-63
2021/05/30 07:09:31;;;;;;;1.90;1.80;;;25.10;46.30;;;;;;6224368;28;20540;-63
2021/05/30 07:12:34;;;;;;;2.13;1.40;;;25.40;44.30;;;;;;6224074;28;20311;-61
2021/05/30 07:15:38;;;;;;;2.07;1.80;;;24.60;42.70;;;;;;6224633;28;20233;-61
2021/05/30 07:18:41;;;;;;;1.60;1.50;;;23.70;44.60;;;;;;6224461;28;20254;-60
2021/05/30 07:21:44;;;;;;;2.67;1.60;;;22.70;45.10;;;;;;6224234;28;20233;-61
2021/05/30 07:24:46;;;;;;;1.67;1.57;;;22.20;46.80;;;;;;6224141;28;20582;-61
2021/05/30 07:27:50;;;;;;;1.87;1.77;;;21.60;47.50;;;;;;6224336;28;20233;-60
2021/05/30 07:30:54;;;;;;;2.17;2.00;;;21.20;49.30;;;;;;6224690;28;20236;-61
2021/05/30 07:34:00;;;;;;;1.83;1.70;;;20.40;49.30;;;;;;6223773;28;20229;-62
2021/05/30 07:37:03;;;;;;;2.17;1.97;;;19.70;50.30;;;;;;6224129;28;20319;-61
2021/05/30 07:40:09;;;;;;;1.63;1.53;;;19.20;51.40;;;;;;6223997;28;20243;-60
2021/05/30 07:43:12;;;;;;;1.37;1.27;;;19.90;50.90;;;;;;6226861;28;20311;-61
2021/05/30 07:46:16;;;;;;;1.50;1.40;;;21.60;48.50;;;;;;6228459;28;20716;-60
2021/05/30 07:49:18;;;;;;;1.73;1.30;;;22.10;47.00;;;;;;6229101;28;20229;-60
2021/05/30 07:52:21;;;;;;;1.70;1.50;;;23.20;45.50;;;;;;6228450;28;20544;-59
2021/05/30 07:55:24;;;;;;;1.30;1.20;;;23.50;45.10;;;;;;6228358;28;20236;-60
2021/05/30 07:58:27;;;;;;;1.70;1.60;;;24.60;44.40;;;;;;6228080;28;20548;-60
2021/05/30 08:01:33;;;;;;;1.87;1.67;;;25.30;42.10;;;;;;6228828;28;20240;-60
2021/05/30 08:04:36;;;;;;;1.70;1.60;;;25.60;40.80;;;;;;6228178;28;20243;-62
2021/05/30 08:07:39;;;;;;;1.87;1.77;;;25.20;40.30;;;;;;6228010;28;20336;-63
2021/05/30 08:10:45;;;;;;;2.03;1.93;;;24.20;41.10;;;;;;6228058;28;20227;-62
2021/05/30 08:13:48;;;;;;;4.23;2.10;;;23.30;43.00;;;;;;6228091;28;20204;-62
2021/05/30 08:16:52;;;;;;;2.17;2.03;;;22.80;44.00;;;;;;6223817;28;20220;-62
2021/05/30 08:19:55;;;;;;;1.90;1.80;;;22.60;44.40;;;;;;6227906;28;20310;-62
2021/05/30 08:22:58;;;;;;;2.00;1.70;;;22.30;45.20;;;;;;6228034;28;20229;-63
2021/05/30 08:26:01;;;;;;;2.40;2.20;;;22.00;45.70;;;;;;6227505;28;20242;-63
2021/05/30 08:29:03;;;;;;;1.87;1.77;;;21.90;46.10;;;;;;6227677;28;20237;-62
2021/05/30 08:32:08;;;;;;;2.47;2.03;;;21.60;45.60;;;;;;6227372;28;20236;-62
2021/05/30 08:35:12;;;;;;;1.90;1.80;;;21.10;45.20;;;;;;6227791;28;20237;-62
2021/05/30 08:38:14;;;;;;;4.90;3.50;;;20.60;46.30;;;;;;6227428;28;20256;-62
2021/05/30 08:41:30;;;;;;;4.77;2.90;;;20.10;48.10;;;;;;6227491;28;20631;-62
2021/05/30 08:44:33;;;;;;;2.03;1.87;;;19.50;48.80;;;;;;6227412;28;20558;-62
2021/05/30 08:47:37;;;;;;;2.67;2.47;;;19.30;49.20;;;;;;6227422;28;20233;-62
2021/05/30 08:50:40;;;;;;;3.10;2.20;;;19.10;50.10;;;;;;6227256;28;20229;-62
2021/05/30 08:53:43;;;;;;;3.10;1.97;;;18.70;50.50;;;;;;6227076;28;20233;-61
2021/05/30 08:56:47;;;;;;;6.00;3.17;;;18.30;50.80;;;;;;6227408;28;20478;-61
2021/05/30 08:59:56;;;;;;;4.20;3.80;;;18.10;51.80;;;;;;6226638;28;20232;-62
2021/05/30 09:03:14;;;;;;;2.77;2.17;;;18.10;54.00;;;;;;6227064;28;20244;-61
2021/05/30 09:06:18;;;;;;;2.40;2.20;;;18.10;53.40;;;;;;6227064;28;20479;-62
2021/05/30 09:09:20;;;;;;;2.40;2.20;;;18.10;54.40;;;;;;6227092;28;20472;-64
2021/05/30 09:12:28;;;;;;;2.80;2.17;;;18.50;54.40;;;;;;6226680;28;20521;-63
2021/05/30 09:15:54;;;;;;;2.30;2.10;;;19.10;53.10;;;;;;6225545;28;20721;-64
2021/05/30 09:18:59;;;;;;;2.73;2.13;;;19.80;51.60;;;;;;6226666;28;20312;-64
2021/05/30 09:22:33;;;;;;;2.27;2.07;;;20.30;51.50;;;;;;6226604;28;20229;-64
2021/05/30 09:25:36;;;;;;;8.43;7.67;;;20.60;49.70;;;;;;6192663;28;20394;-62
2021/05/30 09:28:40;;;;;;;3.30;3.00;;;20.60;49.50;;;;;;6226589;28;20216;-62
2021/05/30 09:31:55;;;;;;;6.37;5.87;;;20.60;47.70;;;;;;6226539;28;20216;-63
2021/05/30 09:35:03;;;;;;;5.50;2.93;;;20.40;48.70;;;;;;6226130;28;20239;-64
2021/05/30 09:38:08;;;;;;;3.20;2.90;;;20.40;48.40;;;;;;6226513;28;20244;-63
2021/05/30 09:41:14;;;;;;;3.80;2.90;;;20.20;47.80;;;;;;6225943;28;20233;-64
2021/05/30 09:44:30;;;;;;;2.60;2.40;;;19.80;48.50;;;;;;6226329;28;20236;-63
2021/05/30 09:47:33;;;;;;;2.67;2.43;;;19.70;51.40;;;;;;6225633;28;20699;-63
2021/05/30 09:50:37;;;;;;;2.60;2.40;;;19.60;49.90;;;;;;6225891;28;20240;-60
2021/05/30 09:53:53;;;;;;;3.70;3.40;;;19.10;49.40;;;;;;6225999;28;20225;-60
2021/05/30 09:56:56;;;;;;;4.70;4.30;;;18.60;52.80;;;;;;6225949;28;20814;-61
2021/05/30 09:59:58;;;;;;;3.90;3.23;;;18.20;54.70;;;;;;6225595;28;20233;-59
2021/05/30 10:03:03;;;;;;;3.23;2.80;;;18.10;55.60;;;;;;6225713;28;20240;-60
2021/05/30 10:06:07;;;;;;;2.00;1.90;;;18.00;55.40;;;;;;6224837;28;20559;-62
2021/05/30 10:09:10;;;;;;;4.00;2.90;;;18.00;54.40;;;;;;6225687;28;20224;-61
2021/05/30 10:12:13;;;;;;;3.27;2.97;;;18.10;54.10;;;;;;6225600;28;20490;-65
2021/05/30 10:15:16;;;;;;;2.77;2.20;;;18.40;54.10;;;;;;6225442;28;20982;-60
2021/05/30 10:18:22;;;;;;;3.60;3.40;;;18.70;52.90;;;;;;6225621;28;20251;-63
2021/05/30 10:21:26;;;;;;;2.80;2.60;;;18.60;53.50;;;;;;6225022;28;20885;-63
2021/05/30 10:24:31;;;;;;;4.50;2.93;;;18.60;55.00;;;;;;6221090;28;20232;-64
2021/05/30 10:27:34;;;;;;;2.70;2.50;;;18.40;54.80;;;;;;6225002;28;20486;-63
2021/05/30 10:30:38;;;;;;;2.97;2.70;;;18.20;54.90;;;;;;6225342;28;20247;-63
2021/05/30 10:33:41;;;;;;;2.90;2.70;;;18.00;55.00;;;;;;6224716;28;20248;-63
2021/05/30 10:37:04;;;;;;;2.80;2.27;;;17.80;55.30;;;;;;6224773;28;20472;-64
2021/05/30 10:40:26;;;;;;;2.00;1.90;;;17.70;54.90;;;;;;6225321;28;20479;-63
2021/05/30 10:43:31;;;;;;;2.07;1.97;;;17.30;55.50;;;;;;6224861;28;20627;-63
2021/05/30 10:46:49;;;;;;;3.00;2.03;;;17.20;55.60;;;;;;6224300;28;20467;-62
2021/05/30 10:50:10;;;;;;;1.80;1.70;;;17.30;57.50;;;;;;6224850;28;20452;-60
2021/05/30 10:53:35;;;;;;;1.97;1.83;;;18.00;56.20;;;;;;6225052;28;20464;-59
2021/05/30 10:56:39;;;;;;;2.40;2.20;;;18.80;54.40;;;;;;6224770;28;20505;-63
2021/05/30 10:59:42;;;;;;;2.47;2.10;;;19.50;53.40;;;;;;6224902;28;20244;-63
2021/05/30 11:03:11;;;;;;;3.10;2.23;;;20.00;52.20;;;;;;6224940;28;20232;-64
2021/05/30 11:06:42;;;;;;;2.50;2.30;;;20.40;50.20;;;;;;6224693;28;20247;-63
2021/05/30 11:10:10;;;;;;;2.70;2.50;;;20.60;50.20;;;;;;6224660;28;20571;-64
2021/05/30 11:13:16;;;;;;;2.43;2.23;;;20.80;48.20;;;;;;6224383;28;20233;-64
2021/05/30 11:16:20;;;;;;;2.47;2.27;;;20.70;50.10;;;;;;6224819;28;20690;-63
2021/05/30 11:19:22;;;;;;;2.37;2.17;;;20.60;49.80;;;;;;6228522;28;20260;-64
2021/05/30 11:22:25;;;;;;;3.27;2.27;;;20.60;49.90;;;;;;6229821;28;20232;-63
2021/05/30 11:25:33;;;;;;;2.73;2.40;;;20.60;50.10;;;;;;6228946;28;20260;-64
2021/05/30 11:28:39;;;;;;;2.33;2.20;;;20.40;51.20;;;;;;6229067;28;20357;-64
2021/05/30 11:31:44;;;;;;;2.40;2.20;;;20.10;51.10;;;;;;6229395;28;20189;-63
2021/05/30 11:34:47;;;;;;;2.57;2.37;;;19.90;51.80;;;;;;6229112;28;20221;-64
2021/05/30 11:37:50;;;;;;;2.50;2.27;;;19.80;51.70;;;;;;6228985;28;20206;-63
2021/05/30 11:41:08;;;;;;;3.47;3.17;;;19.80;52.50;;;;;;6228651;28;20236;-63
2021/05/30 11:44:12;;;;;;;2.77;2.53;;;19.90;53.90;;;;;;6229034;28;20244;-63
2021/05/30 11:47:15;;;;;;;2.67;2.47;;;20.20;53.60;;;;;;6228803;28;20232;-62
2021/05/30 11:50:30;;;;;;;3.23;2.97;;;20.50;52.30;;;;;;6228907;28;20247;-63
2021/05/30 11:53:34;;;;;;;7.13;2.50;;;20.80;49.50;;;;;;6228823;28;20225;-63
2021/05/30 11:56:39;;;;;;;2.93;2.50;;;21.20;49.40;;;;;;6228878;28;20263;-64
2021/05/30 11:59:44;;;;;;;2.70;2.37;;;21.40;49.50;;;;;;6228046;28;20582;-63
2021/05/30 12:02:47;;;;;;;1.90;1.80;;;21.50;46.20;;;;;;6228500;28;20237;-63
2021/05/30 12:05:56;;;;;;;2.20;2.00;;;21.40;47.00;;;;;;6227824;28;20579;-64
2021/05/30 12:08:59;;;;;;;10.03;3.10;;;21.30;43.50;;;;;;6228486;28;20573;-64
2021/05/30 12:12:22;;;;;;;2.60;2.40;;;21.10;42.30;;;;;;6227910;28;20569;-63
2021/05/30 12:15:28;;;;;;;2.57;2.37;;;21.00;43.50;;;;;;6228259;28;20233;-63
2021/05/30 12:18:30;;;;;;;2.27;2.07;;;20.80;44.50;;;;;;6227991;28;20236;-60
2021/05/30 12:21:41;;;;;;;2.30;2.13;;;20.80;45.30;;;;;;6227927;28;20229;-60
2021/05/30 12:24:45;;;;;;;5.47;2.20;;;20.60;43.80;;;;;;6227757;28;20240;-60
2021/05/30 12:27:49;;;;;;;2.20;2.00;;;20.40;44.50;;;;;;6227327;28;20232;-60
2021/05/30 12:30:53;;;;;;;2.43;2.07;;;20.60;45.50;;;;;;6227237;28;20243;-60
2021/05/30 12:33:57;;;;;;;3.00;2.80;;;20.60;44.90;;;;;;6218772;28;20247;-60
2021/05/30 12:37:00;;;;;;;3.57;2.77;;;20.70;44.40;;;;;;6226989;28;20233;-60
2021/05/30 12:40:04;;;;;;;2.63;2.43;;;20.70;43.70;;;;;;6227361;28;20694;-61
2021/05/30 12:43:08;;;;;;;4.37;2.47;;;20.50;44.30;;;;;;6227152;28;20581;-60
2021/05/30 12:46:11;;;;;;;2.57;2.47;;;20.60;44.40;;;;;;6227538;28;20233;-60
2021/05/30 12:49:15;;;;;;;2.20;2.00;;;20.40;43.80;;;;;;6226896;28;20712;-60
2021/05/30 12:52:18;;;;;;;2.77;2.57;;;20.40;44.70;;;;;;6227542;28;20236;-60
2021/05/30 12:55:22;;;;;;;5.53;2.80;;;20.40;43.30;;;;;;6227033;28;20248;-60
2021/05/30 12:58:26;;;;;;;2.37;2.17;;;20.40;43.90;;;;;;6227062;28;20240;-60
2021/05/30 13:01:29;;;;;;;2.60;2.40;;;20.40;43.10;;;;;;6227033;28;20525;-60
2021/05/30 13:04:39;;;;;;;2.50;2.30;;;20.50;43.30;;;;;;6226559;28;20229;-60
2021/05/30 13:07:42;;;;;;;3.43;2.80;;;20.40;43.80;;;;;;6227135;28;20217;-60
2021/05/30 13:10:56;;;;;;;3.00;2.70;;;20.60;44.20;;;;;;6226979;28;20209;-60
2021/05/30 13:13:59;;;;;;;4.60;2.77;;;20.60;42.90;;;;;;6226963;28;20229;-60
2021/05/30 13:17:18;;;;;;;2.60;2.40;;;20.50;42.30;;;;;;6226473;28;20702;-61
2021/05/30 13:20:25;;;;;;;2.70;2.23;;;20.20;42.70;;;;;;6227005;28;20229;-61
2021/05/30 13:23:30;;;;;;;2.90;2.70;;;20.40;42.30;;;;;;6226864;28;20240;-59
2021/05/30 13:26:43;;;;;;;2.50;2.30;;;20.30;42.40;;;;;;6227269;28;20236;-59
2021/05/30 13:30:01;;;;;;;2.53;2.30;;;20.40;43.00;;;;;;6226684;28;20233;-60
2021/05/30 13:33:04;;;;;;;2.60;2.40;;;20.60;42.80;;;;;;6226216;28;20717;-59
2021/05/30 13:36:08;;;;;;;2.80;2.60;;;20.50;42.30;;;;;;6216990;28;20247;-59
2021/05/30 13:39:11;;;;;;;2.73;2.53;;;20.30;40.90;;;;;;6226410;28;20673;-59
2021/05/30 13:42:14;;;;;;;3.50;2.73;;;20.10;42.20;;;;;;6225876;28;20239;-59
2021/05/30 13:45:18;;;;;;;2.37;2.17;;;20.20;43.00;;;;;;6226170;28;20697;-59
2021/05/30 13:48:21;;;;;;;2.83;2.50;;;20.30;41.50;;;;;;6225748;28;20694;-59
2021/05/30 13:51:25;;;;;;;2.40;2.20;;;20.30;42.00;;;;;;6225852;28;20225;-59
2021/05/30 13:54:27;;;;;;;2.67;1.70;;;20.40;41.30;;;;;;6225837;28;20244;-59
2021/05/30 13:57:30;;;;;;;1.90;1.80;;;20.60;41.10;;;;;;6225879;28;20241;-59
2021/05/30 14:00:34;;;;;;;2.70;2.50;;;20.70;40.70;;;;;;6225432;28;20244;-59
2021/05/30 14:03:38;;;;;;;2.87;2.53;;;20.90;40.50;;;;;;6225685;28;20308;-60
2021/05/30 14:06:45;;;;;;;2.13;1.93;;;21.00;39.50;;;;;;6225532;28;20244;-61
2021/05/30 14:09:49;;;;;;;2.30;2.10;;;20.90;39.70;;;;;;6225869;28;20233;-60
2021/05/30 14:12:52;;;;;;;2.57;2.40;;;20.70;40.30;;;;;;6225120;28;20585;-60
2021/05/30 14:15:55;;;;;;;2.90;2.33;;;20.70;41.20;;;;;;6225193;28;20566;-60
2021/05/30 14:18:58;;;;;;;2.20;2.00;;;20.60;40.90;;;;;;6225148;28;20480;-60
2021/05/30 14:22:01;;;;;;;2.80;2.60;;;20.60;41.30;;;;;;6225399;28;20694;-60
2021/05/30 14:25:06;;;;;;;3.10;2.30;;;20.60;40.90;;;;;;6225594;28;20229;-60
2021/05/30 14:28:09;;;;;;;2.57;2.40;;;20.60;41.20;;;;;;6225173;28;20232;-60
2021/05/30 14:31:12;;;;;;;5.73;3.30;;;20.70;41.50;;;;;;6225414;28;20235;-59
2021/05/30 14:34:15;;;;;;;2.77;2.57;;;20.70;41.60;;;;;;6224626;28;20233;-60
2021/05/30 14:37:18;;;;;;;3.43;2.70;;;20.60;40.40;;;;;;6225155;28;20698;-60
2021/05/30 14:40:21;;;;;;;2.77;2.57;;;20.40;41.10;;;;;;6220494;28;20567;-60
2021/05/30 14:43:24;;;;;;;4.33;2.53;;;20.60;41.20;;;;;;6225360;28;20235;-59
2021/05/30 14:46:30;;;;;;;3.37;2.60;;;20.70;40.70;;;;;;6224531;28;20810;-60
2021/05/30 14:49:33;;;;;;;2.60;2.40;;;20.80;40.40;;;;;;6225038;28;20284;-59
2021/05/30 14:52:36;;;;;;;2.47;2.27;;;21.00;40.80;;;;;;6228904;28;20212;-61
2021/05/30 14:55:39;;;;;;;4.93;2.47;;;20.90;40.10;;;;;;6233206;28;20232;-60
2021/05/30 14:58:50;;;;;;;2.47;2.27;;;20.70;39.40;;;;;;6232428;28;20383;-59
2021/05/30 15:01:54;;;;;;;2.07;1.90;;;20.30;40.00;;;;;;6233255;28;20342;-62
2021/05/30 15:04:57;;;;;;;2.20;2.10;;;20.00;40.50;;;;;;6232827;28;20236;-62
2021/05/30 15:07:59;;;;;;;5.03;3.13;;;19.90;41.40;;;;;;6232905;28;20240;-63
2021/05/30 15:11:02;;;;;;;3.50;2.30;;;20.00;41.70;;;;;;6232931;28;20224;-60
2021/05/30 15:14:05;;;;;;;2.50;2.30;;;20.30;41.60;;;;;;6232658;28;20237;-60
2021/05/30 15:17:09;;;;;;;2.50;2.30;;;20.30;41.20;;;;;;6233086;28;20232;-60
2021/05/30 15:20:13;;;;;;;3.33;3.03;;;20.30;42.10;;;;;;6232384;28;20255;-60
2021/05/30 15:23:16;;;;;;;4.37;3.97;;;20.30;42.60;;;;;;6232953;28;20236;-61
2021/05/30 15:26:19;;;;;;;2.93;2.67;;;20.30;42.00;;;;;;6232489;28;20228;-60
2021/05/30 15:29:22;;;;;;;3.60;3.30;;;20.20;42.30;;;;;;6232849;28;20366;-59
2021/05/30 15:32:25;;;;;;;2.90;2.70;;;20.00;42.80;;;;;;6232746;28;20243;-59
2021/05/30 15:35:28;;;;;;;2.50;2.30;;;19.80;42.80;;;;;;6232429;28;20670;-62
2021/05/30 15:38:32;;;;;;;2.20;2.10;;;19.70;43.40;;;;;;6232787;28;20233;-62
2021/05/30 15:41:35;;;;;;;2.67;2.47;;;19.50;43.40;;;;;;6227878;28;20233;-62
2021/05/30 15:44:38;;;;;;;4.33;2.93;;;19.40;43.70;;;;;;6232444;28;20225;-60
2021/05/30 15:47:41;;;;;;;3.67;2.77;;;19.30;43.20;;;;;;6232525;28;20244;-60
2021/05/30 15:50:44;;;;;;;5.53;2.73;;;19.20;43.60;;;;;;6232488;28;20229;-62
2021/05/30 15:53:47;;;;;;;2.73;2.50;;;19.20;43.60;;;;;;6232119;28;20232;-59
2021/05/30 15:56:51;;;;;;;3.17;2.87;;;19.30;44.10;;;;;;6232442;28;20303;-62
2021/05/30 15:59:54;;;;;;;2.73;2.53;;;19.20;44.10;;;;;;6231599;28;20236;-62
2021/05/30 16:02:58;;;;;;;2.80;2.60;;;19.10;44.60;;;;;;6230711;28;20667;-62